sensor_id;sensor_type;location;lat;lon;timestamp;P1;durP1;ratioP1;P2;durP2;ratioP2
45382;SDS011;42455;51.660;5.824;2024-01-30T00:01:47;11.0;;;10.0;;
45382;SDS011;42455;51.660;5.824;2024-01-30T00:06:53;11.0;;;10.0;;
45382;SDS011;42455;51.660;5.824;2024-01-30T00:11:59;11.0;;;10.0;;
45382;SDS011;42455;51.660;5.824;2024-01-30T00:17:05;11.0;;;10.0;;
45382;SDS011;42455;51.660;5.824;2024-01-30T00:22:11;11.0;;;10.0;;
45382;SDS011;42455;51.660;5.824;2024-01-30T00:27:18;12.0;;;10.0;;
45382;SDS011;42455;51.660;5.824;2024-01-30T00:32:24;12.0;;;10.0;;
45382;SDS011;42455;51.660;5.824;2024-01-30T00:37:30;11.5;;;10.0;;
45382;SDS011;42455;51.660;5.824;2024-01-30T00:42:36;12.0;;;11.0;;
45382;SDS011;42455;51.660;5.824;2024-01-30T00:47:43;13.0;;;11.0;;
45382;SDS011;42455;51.660;5.824;2024-01-30T00:52:49;14.0;;;12.0;;
45382;SDS011;42455;51.660;5.824;2024-01-30T00:57:55;13.0;;;12.0;;
45382;SDS011;42455;51.660;5.824;2024-01-30T01:03:02;12.0;;;11.0;;
45382;SDS011;42455;51.660;5.824;2024-01-30T01:08:07;12.0;;;11.0;;
45382;SDS011;42455;51.660;5.824;2024-01-30T01:13:14;12.0;;;10.0;;
45382;SDS011;42455;51.660;5.824;2024-01-30T01:18:20;12.0;;;11.0;;
45382;SDS011;42455;51.660;5.824;2024-01-30T01:23:26;12.0;;;11.0;;
45382;SDS011;42455;51.660;5.824;2024-01-30T01:28:32;12.0;;;11.0;;
45382;SDS011;42455;51.660;5.824;2024-01-30T01:33:38;12.0;;;10.0;;
45382;SDS011;42455;51.660;5.824;2024-01-30T01:38:44;11.5;;;10.0;;
45382;SDS011;42455;51.660;5.824;2024-01-30T01:43:50;12.0;;;11.0;;
45382;SDS011;42455;51.660;5.824;2024-01-30T01:48:56;11.0;;;10.0;;
45382;SDS011;42455;51.660;5.824;2024-01-30T01:54:04;12.0;;;11.0;;
45382;SDS011;42455;51.660;5.824;2024-01-30T01:59:09;12.0;;;11.0;;
45382;SDS011;42455;51.660;5.824;2024-01-30T02:04:15;12.0;;;10.0;;
45382;SDS011;42455;51.660;5.824;2024-01-30T02:09:21;12.0;;;10.0;;
45382;SDS011;42455;51.660;5.824;2024-01-30T02:14:27;12.0;;;11.0;;
45382;SDS011;42455;51.660;5.824;2024-01-30T02:19:33;12.0;;;11.0;;
45382;SDS011;42455;51.660;5.824;2024-01-30T02:24:40;12.0;;;10.0;;
45382;SDS011;42455;51.660;5.824;2024-01-30T02:29:46;12.0;;;11.0;;
45382;SDS011;42455;51.660;5.824;2024-01-30T02:34:52;12.0;;;11.0;;
45382;SDS011;42455;51.660;5.824;2024-01-30T02:39:58;12.0;;;10.5;;
45382;SDS011;42455;51.660;5.824;2024-01-30T02:45:05;12.0;;;10.0;;
45382;SDS011;42455;51.660;5.824;2024-01-30T02:50:10;12.0;;;10.0;;
45382;SDS011;42455;51.660;5.824;2024-01-30T02:55:17;11.0;;;10.0;;
45382;SDS011;42455;51.660;5.824;2024-01-30T03:00:23;11.0;;;10.0;;
45382;SDS011;42455;51.660;5.824;2024-01-30T03:05:29;11.0;;;10.0;;
45382;SDS011;42455;51.660;5.824;2024-01-30T03:10:35;11.0;;;10.0;;
45382;SDS011;42455;51.660;5.824;2024-01-30T03:15:42;11.0;;;10.0;;
45382;SDS011;42455;51.660;5.824;2024-01-30T03:20:47;11.0;;;10.0;;
45382;SDS011;42455;51.660;5.824;2024-01-30T03:25:52;11.0;;;10.0;;
45382;SDS011;42455;51.660;5.824;2024-01-30T03:30:58;11.0;;;10.0;;
45382;SDS011;42455;51.660;5.824;2024-01-30T03:36:04;11.0;;;10.0;;
45382;SDS011;42455;51.660;5.824;2024-01-30T03:41:11;11.0;;;10.0;;
45382;SDS011;42455;51.660;5.824;2024-01-30T03:46:17;10.0;;;9.0;;
45382;SDS011;42455;51.660;5.824;2024-01-30T03:51:23;11.0;;;10.0;;
45382;SDS011;42455;51.660;5.824;2024-01-30T03:56:29;11.0;;;10.0;;
45382;SDS011;42455;51.660;5.824;2024-01-30T04:01:35;11.0;;;10.0;;
45382;SDS011;42455;51.660;5.824;2024-01-30T04:06:42;10.0;;;9.0;;
45382;SDS011;42455;51.660;5.824;2024-01-30T04:11:48;10.0;;;9.0;;
45382;SDS011;42455;51.660;5.824;2024-01-30T04:16:54;11.0;;;9.0;;
45382;SDS011;42455;51.660;5.824;2024-01-30T04:22:00;10.0;;;9.0;;
45382;SDS011;42455;51.660;5.824;2024-01-30T04:27:06;10.0;;;9.0;;
45382;SDS011;42455;51.660;5.824;2024-01-30T04:32:13;10.0;;;9.0;;
45382;SDS011;42455;51.660;5.824;2024-01-30T04:37:19;10.0;;;9.0;;
45382;SDS011;42455;51.660;5.824;2024-01-30T04:42:25;10.0;;;9.0;;
45382;SDS011;42455;51.660;5.824;2024-01-30T04:47:31;10.0;;;9.0;;
45382;SDS011;42455;51.660;5.824;2024-01-30T04:52:38;10.0;;;9.0;;
45382;SDS011;42455;51.660;5.824;2024-01-30T04:57:44;9.5;;;8.0;;
45382;SDS011;42455;51.660;5.824;2024-01-30T05:02:50;10.0;;;9.0;;
45382;SDS011;42455;51.660;5.824;2024-01-30T05:07:55;9.0;;;8.0;;
45382;SDS011;42455;51.660;5.824;2024-01-30T05:13:02;9.0;;;8.0;;
45382;SDS011;42455;51.660;5.824;2024-01-30T05:18:08;9.0;;;8.0;;
45382;SDS011;42455;51.660;5.824;2024-01-30T05:23:14;9.0;;;8.0;;
45382;SDS011;42455;51.660;5.824;2024-01-30T05:28:20;9.0;;;8.0;;
45382;SDS011;42455;51.660;5.824;2024-01-30T05:33:26;10.0;;;8.0;;
45382;SDS011;42455;51.660;5.824;2024-01-30T05:38:32;8.5;;;8.0;;
45382;SDS011;42455;51.660;5.824;2024-01-30T05:43:39;9.0;;;8.0;;
45382;SDS011;42455;51.660;5.824;2024-01-30T05:48:45;8.0;;;7.0;;
45382;SDS011;42455;51.660;5.824;2024-01-30T05:53:51;9.0;;;8.0;;
45382;SDS011;42455;51.660;5.824;2024-01-30T05:58:57;9.0;;;8.0;;
45382;SDS011;42455;51.660;5.824;2024-01-30T06:04:03;9.0;;;8.0;;
45382;SDS011;42455;51.660;5.824;2024-01-30T06:09:10;8.0;;;7.0;;
45382;SDS011;42455;51.660;5.824;2024-01-30T06:14:16;8.5;;;8.0;;
45382;SDS011;42455;51.660;5.824;2024-01-30T06:19:22;8.0;;;7.5;;
45382;SDS011;42455;51.660;5.824;2024-01-30T06:24:28;8.0;;;7.0;;
45382;SDS011;42455;51.660;5.824;2024-01-30T06:29:35;9.0;;;8.0;;
45382;SDS011;42455;51.660;5.824;2024-01-30T06:34:41;9.0;;;8.0;;
45382;SDS011;42455;51.660;5.824;2024-01-30T06:39:47;9.0;;;8.0;;
45382;SDS011;42455;51.660;5.824;2024-01-30T06:44:53;9.0;;;8.0;;
45382;SDS011;42455;51.660;5.824;2024-01-30T06:49:58;8.0;;;8.0;;
45382;SDS011;42455;51.660;5.824;2024-01-30T06:55:05;9.0;;;8.0;;
45382;SDS011;42455;51.660;5.824;2024-01-30T07:00:11;9.0;;;8.0;;
45382;SDS011;42455;51.660;5.824;2024-01-30T07:05:17;8.0;;;7.0;;
45382;SDS011;42455;51.660;5.824;2024-01-30T07:10:23;9.0;;;8.0;;
45382;SDS011;42455;51.660;5.824;2024-01-30T07:15:29;9.0;;;8.0;;
45382;SDS011;42455;51.660;5.824;2024-01-30T07:20:36;9.0;;;8.0;;
45382;SDS011;42455;51.660;5.824;2024-01-30T07:25:42;8.5;;;7.0;;
45382;SDS011;42455;51.660;5.824;2024-01-30T07:30:48;8.5;;;8.0;;
45382;SDS011;42455;51.660;5.824;2024-01-30T07:35:54;8.0;;;7.0;;
45382;SDS011;42455;51.660;5.824;2024-01-30T07:41:00;8.0;;;7.0;;
45382;SDS011;42455;51.660;5.824;2024-01-30T07:46:07;7.0;;;7.0;;
45382;SDS011;42455;51.660;5.824;2024-01-30T07:51:13;8.0;;;7.0;;
45382;SDS011;42455;51.660;5.824;2024-01-30T07:56:19;8.0;;;7.0;;
45382;SDS011;42455;51.660;5.824;2024-01-30T08:01:25;8.0;;;7.0;;
45382;SDS011;42455;51.660;5.824;2024-01-30T08:06:32;8.0;;;7.0;;
45382;SDS011;42455;51.660;5.824;2024-01-30T08:11:38;8.0;;;7.0;;
45382;SDS011;42455;51.660;5.824;2024-01-30T08:16:44;8.0;;;7.0;;
45382;SDS011;42455;51.660;5.824;2024-01-30T08:21:50;8.0;;;7.0;;
45382;SDS011;42455;51.660;5.824;2024-01-30T08:26:56;8.0;;;7.0;;
45382;SDS011;42455;51.660;5.824;2024-01-30T08:32:03;7.0;;;7.0;;
45382;SDS011;42455;51.660;5.824;2024-01-30T08:37:07;7.0;;;6.0;;
45382;SDS011;42455;51.660;5.824;2024-01-30T08:42:13;8.0;;;6.0;;
45382;SDS011;42455;51.660;5.824;2024-01-30T08:47:19;7.0;;;6.0;;
45382;SDS011;42455;51.660;5.824;2024-01-30T08:52:25;7.0;;;6.0;;
45382;SDS011;42455;51.660;5.824;2024-01-30T08:57:32;7.5;;;6.0;;
45382;SDS011;42455;51.660;5.824;2024-01-30T09:02:38;8.0;;;6.0;;
45382;SDS011;42455;51.660;5.824;2024-01-30T09:07:44;7.0;;;6.0;;
45382;SDS011;42455;51.660;5.824;2024-01-30T09:12:50;7.0;;;6.0;;
45382;SDS011;42455;51.660;5.824;2024-01-30T09:17:56;8.0;;;6.0;;
45382;SDS011;42455;51.660;5.824;2024-01-30T09:23:03;8.0;;;7.0;;
45382;SDS011;42455;51.660;5.824;2024-01-30T09:28:09;7.0;;;7.0;;
45382;SDS011;42455;51.660;5.824;2024-01-30T09:33:15;7.0;;;6.0;;
45382;SDS011;42455;51.660;5.824;2024-01-30T09:38:21;7.5;;;6.0;;
45382;SDS011;42455;51.660;5.824;2024-01-30T09:43:28;9.0;;;7.0;;
45382;SDS011;42455;51.660;5.824;2024-01-30T09:48:34;8.0;;;7.0;;
45382;SDS011;42455;51.660;5.824;2024-01-30T09:53:41;7.0;;;6.0;;
45382;SDS011;42455;51.660;5.824;2024-01-30T09:58:46;8.0;;;7.0;;
45382;SDS011;42455;51.660;5.824;2024-01-30T10:03:53;8.5;;;7.0;;
45382;SDS011;42455;51.660;5.824;2024-01-30T10:08:59;9.0;;;7.0;;
45382;SDS011;42455;51.660;5.824;2024-01-30T10:14:05;8.0;;;7.0;;
45382;SDS011;42455;51.660;5.824;2024-01-30T10:24:16;8.0;;;7.0;;
45382;SDS011;42455;51.660;5.824;2024-01-30T10:29:22;8.0;;;7.0;;
45382;SDS011;42455;51.660;5.824;2024-01-30T10:34:28;8.0;;;7.0;;
45382;SDS011;42455;51.660;5.824;2024-01-30T10:39:38;9.5;;;8.0;;
45382;SDS011;42455;51.660;5.824;2024-01-30T10:44:44;9.0;;;7.5;;
45382;SDS011;42455;51.660;5.824;2024-01-30T10:49:47;10.0;;;7.0;;
45382;SDS011;42455;51.660;5.824;2024-01-30T10:54:54;9.0;;;7.0;;
45382;SDS011;42455;51.660;5.824;2024-01-30T10:59:59;9.0;;;8.0;;
45382;SDS011;42455;51.660;5.824;2024-01-30T11:05:05;9.0;;;7.0;;
45382;SDS011;42455;51.660;5.824;2024-01-30T11:10:11;9.0;;;7.0;;
45382;SDS011;42455;51.660;5.824;2024-01-30T11:15:18;8.5;;;8.0;;
45382;SDS011;42455;51.660;5.824;2024-01-30T11:20:27;9.0;;;8.0;;
45382;SDS011;42455;51.660;5.824;2024-01-30T11:25:31;8.5;;;7.0;;
45382;SDS011;42455;51.660;5.824;2024-01-30T11:30:36;8.0;;;7.0;;
45382;SDS011;42455;51.660;5.824;2024-01-30T11:35:44;8.0;;;7.0;;
45382;SDS011;42455;51.660;5.824;2024-01-30T11:40:51;10.0;;;7.0;;
45382;SDS011;42455;51.660;5.824;2024-01-30T11:45:55;9.0;;;8.0;;
45382;SDS011;42455;51.660;5.824;2024-01-30T11:51:01;10.0;;;8.0;;
45382;SDS011;42455;51.660;5.824;2024-01-30T11:56:07;10.0;;;8.0;;
45382;SDS011;42455;51.660;5.824;2024-01-30T12:01:13;9.0;;;8.0;;
45382;SDS011;42455;51.660;5.824;2024-01-30T12:06:20;9.0;;;8.0;;
45382;SDS011;42455;51.660;5.824;2024-01-30T12:11:25;10.0;;;8.0;;
45382;SDS011;42455;51.660;5.824;2024-01-30T12:16:31;9.0;;;7.5;;
45382;SDS011;42455;51.660;5.824;2024-01-30T12:21:38;10.0;;;7.0;;
45382;SDS011;42455;51.660;5.824;2024-01-30T12:26:43;7.0;;;5.0;;
45382;SDS011;42455;51.660;5.824;2024-01-30T12:31:52;7.0;;;5.0;;
45382;SDS011;42455;51.660;5.824;2024-01-30T12:36:56;6.0;;;5.0;;
45382;SDS011;42455;51.660;5.824;2024-01-30T12:42:02;6.0;;;5.0;;
45382;SDS011;42455;51.660;5.824;2024-01-30T12:47:08;7.0;;;5.0;;
45382;SDS011;42455;51.660;5.824;2024-01-30T12:52:16;5.0;;;4.0;;
45382;SDS011;42455;51.660;5.824;2024-01-30T12:57:20;4.0;;;3.0;;
45382;SDS011;42455;51.660;5.824;2024-01-30T13:02:26;5.0;;;3.0;;
45382;SDS011;42455;51.660;5.824;2024-01-30T13:07:32;4.0;;;3.0;;
45382;SDS011;42455;51.660;5.824;2024-01-30T13:12:38;4.5;;;3.0;;
45382;SDS011;42455;51.660;5.824;2024-01-30T13:17:45;3.0;;;2.0;;
45382;SDS011;42455;51.660;5.824;2024-01-30T13:22:51;3.0;;;2.0;;
45382;SDS011;42455;51.660;5.824;2024-01-30T13:27:57;3.0;;;2.0;;
45382;SDS011;42455;51.660;5.824;2024-01-30T13:33:03;2.0;;;1.0;;
45382;SDS011;42455;51.660;5.824;2024-01-30T13:38:09;2.0;;;1.0;;
45382;SDS011;42455;51.660;5.824;2024-01-30T13:48:22;2.0;;;1.0;;
45382;SDS011;42455;51.660;5.824;2024-01-30T13:53:28;3.0;;;1.0;;
45382;SDS011;42455;51.660;5.824;2024-01-30T13:58:34;2.0;;;1.0;;
45382;SDS011;42455;51.660;5.824;2024-01-30T14:03:40;4.0;;;1.0;;
45382;SDS011;42455;51.660;5.824;2024-01-30T14:08:47;2.5;;;1.0;;
45382;SDS011;42455;51.660;5.824;2024-01-30T14:13:53;3.0;;;2.0;;
45382;SDS011;42455;51.660;5.824;2024-01-30T14:18:59;2.0;;;1.0;;
45382;SDS011;42455;51.660;5.824;2024-01-30T14:24:05;3.0;;;1.0;;
45382;SDS011;42455;51.660;5.824;2024-01-30T14:29:11;2.0;;;1.0;;
45382;SDS011;42455;51.660;5.824;2024-01-30T14:34:18;2.0;;;1.0;;
45382;SDS011;42455;51.660;5.824;2024-01-30T14:39:24;2.0;;;2.0;;
45382;SDS011;42455;51.660;5.824;2024-01-30T14:44:30;2.0;;;1.0;;
45382;SDS011;42455;51.660;5.824;2024-01-30T14:49:36;2.0;;;1.0;;
45382;SDS011;42455;51.660;5.824;2024-01-30T14:54:43;3.0;;;1.0;;
45382;SDS011;42455;51.660;5.824;2024-01-30T14:59:49;2.5;;;2.0;;
45382;SDS011;42455;51.660;5.824;2024-01-30T15:04:55;3.0;;;2.0;;
45382;SDS011;42455;51.660;5.824;2024-01-30T15:10:01;4.0;;;3.0;;
45382;SDS011;42455;51.660;5.824;2024-01-30T15:15:08;5.0;;;3.0;;
45382;SDS011;42455;51.660;5.824;2024-01-30T15:20:14;5.0;;;4.0;;
45382;SDS011;42455;51.660;5.824;2024-01-30T15:25:20;5.0;;;4.0;;
45382;SDS011;42455;51.660;5.824;2024-01-30T15:30:26;6.0;;;4.0;;
45382;SDS011;42455;51.660;5.824;2024-01-30T15:35:32;6.0;;;4.0;;
45382;SDS011;42455;51.660;5.824;2024-01-30T15:40:38;7.0;;;5.0;;
45382;SDS011;42455;51.660;5.824;2024-01-30T15:45:45;7.0;;;5.0;;
45382;SDS011;42455;51.660;5.824;2024-01-30T15:50:51;6.0;;;5.0;;
45382;SDS011;42455;51.660;5.824;2024-01-30T15:55:57;6.0;;;5.0;;
45382;SDS011;42455;51.660;5.824;2024-01-30T16:01:03;6.0;;;5.0;;
45382;SDS011;42455;51.660;5.824;2024-01-30T16:06:09;6.5;;;4.0;;
45382;SDS011;42455;51.660;5.824;2024-01-30T16:11:16;4.0;;;4.0;;
45382;SDS011;42455;51.660;5.824;2024-01-30T16:16:22;5.0;;;4.0;;
45382;SDS011;42455;51.660;5.824;2024-01-30T16:21:28;4.0;;;4.0;;
45382;SDS011;42455;51.660;5.824;2024-01-30T16:26:34;4.0;;;3.5;;
45382;SDS011;42455;51.660;5.824;2024-01-30T16:31:41;4.0;;;4.0;;
45382;SDS011;42455;51.660;5.824;2024-01-30T16:36:47;4.0;;;4.0;;
45382;SDS011;42455;51.660;5.824;2024-01-30T16:41:53;4.0;;;4.0;;
45382;SDS011;42455;51.660;5.824;2024-01-30T16:46:59;4.0;;;4.0;;
45382;SDS011;42455;51.660;5.824;2024-01-30T16:52:05;5.0;;;5.0;;
45382;SDS011;42455;51.660;5.824;2024-01-30T16:57:12;5.0;;;5.0;;
45382;SDS011;42455;51.660;5.824;2024-01-30T17:02:18;6.0;;;5.0;;
45382;SDS011;42455;51.660;5.824;2024-01-30T17:07:24;7.0;;;6.0;;
45382;SDS011;42455;51.660;5.824;2024-01-30T17:12:30;8.0;;;7.0;;
45382;SDS011;42455;51.660;5.824;2024-01-30T17:17:36;8.0;;;7.0;;
45382;SDS011;42455;51.660;5.824;2024-01-30T17:22:43;9.0;;;8.0;;
45382;SDS011;42455;51.660;5.824;2024-01-30T17:27:49;9.0;;;8.0;;
45382;SDS011;42455;51.660;5.824;2024-01-30T17:32:55;10.0;;;9.0;;
45382;SDS011;42455;51.660;5.824;2024-01-30T17:38:01;11.0;;;9.0;;
45382;SDS011;42455;51.660;5.824;2024-01-30T17:43:07;10.0;;;9.0;;
45382;SDS011;42455;51.660;5.824;2024-01-30T17:48:14;11.0;;;10.0;;
45382;SDS011;42455;51.660;5.824;2024-01-30T17:53:20;11.0;;;10.0;;
45382;SDS011;42455;51.660;5.824;2024-01-30T17:58:26;12.0;;;10.0;;
45382;SDS011;42455;51.660;5.824;2024-01-30T18:03:33;12.0;;;11.0;;
45382;SDS011;42455;51.660;5.824;2024-01-30T18:08:38;11.0;;;10.0;;
45382;SDS011;42455;51.660;5.824;2024-01-30T18:13:45;12.0;;;10.0;;
45382;SDS011;42455;51.660;5.824;2024-01-30T18:18:50;12.0;;;10.5;;
45382;SDS011;42455;51.660;5.824;2024-01-30T18:23:56;12.0;;;11.0;;
45382;SDS011;42455;51.660;5.824;2024-01-30T18:29:03;12.0;;;11.0;;
45382;SDS011;42455;51.660;5.824;2024-01-30T18:34:09;13.0;;;11.0;;
45382;SDS011;42455;51.660;5.824;2024-01-30T18:39:15;13.0;;;11.5;;
45382;SDS011;42455;51.660;5.824;2024-01-30T18:44:21;13.0;;;12.0;;
45382;SDS011;42455;51.660;5.824;2024-01-30T18:49:27;13.0;;;12.0;;
45382;SDS011;42455;51.660;5.824;2024-01-30T18:54:33;12.0;;;11.0;;
45382;SDS011;42455;51.660;5.824;2024-01-30T18:59:40;12.5;;;11.0;;
45382;SDS011;42455;51.660;5.824;2024-01-30T19:04:46;13.0;;;12.0;;
45382;SDS011;42455;51.660;5.824;2024-01-30T19:09:52;13.0;;;12.0;;
45382;SDS011;42455;51.660;5.824;2024-01-30T19:14:58;13.0;;;12.0;;
45382;SDS011;42455;51.660;5.824;2024-01-30T19:20:05;13.0;;;12.0;;
45382;SDS011;42455;51.660;5.824;2024-01-30T19:25:11;13.0;;;11.0;;
45382;SDS011;42455;51.660;5.824;2024-01-30T19:30:17;13.0;;;12.0;;
45382;SDS011;42455;51.660;5.824;2024-01-30T19:35:23;12.0;;;11.0;;
45382;SDS011;42455;51.660;5.824;2024-01-30T19:40:29;12.0;;;10.0;;
45382;SDS011;42455;51.660;5.824;2024-01-30T19:45:35;12.0;;;11.0;;
45382;SDS011;42455;51.660;5.824;2024-01-30T19:50:42;12.0;;;11.0;;
45382;SDS011;42455;51.660;5.824;2024-01-30T19:55:48;12.0;;;11.0;;
45382;SDS011;42455;51.660;5.824;2024-01-30T20:00:54;12.0;;;11.0;;
45382;SDS011;42455;51.660;5.824;2024-01-30T20:06:00;13.0;;;12.0;;
45382;SDS011;42455;51.660;5.824;2024-01-30T20:11:11;12.0;;;11.0;;
45382;SDS011;42455;51.660;5.824;2024-01-30T20:16:13;13.0;;;12.0;;
45382;SDS011;42455;51.660;5.824;2024-01-30T20:21:19;13.5;;;12.0;;
45382;SDS011;42455;51.660;5.824;2024-01-30T20:26:25;15.0;;;13.0;;
45382;SDS011;42455;51.660;5.824;2024-01-30T20:31:31;15.0;;;14.0;;
45382;SDS011;42455;51.660;5.824;2024-01-30T20:36:40;15.0;;;13.0;;
45382;SDS011;42455;51.660;5.824;2024-01-30T20:41:44;15.0;;;12.5;;
45382;SDS011;42455;51.660;5.824;2024-01-30T20:46:50;14.0;;;12.5;;
45382;SDS011;42455;51.660;5.824;2024-01-30T20:51:56;12.0;;;11.0;;
45382;SDS011;42455;51.660;5.824;2024-01-30T20:57:02;9.0;;;8.0;;
45382;SDS011;42455;51.660;5.824;2024-01-30T21:02:09;8.0;;;7.0;;
45382;SDS011;42455;51.660;5.824;2024-01-30T21:07:15;9.0;;;8.0;;
45382;SDS011;42455;51.660;5.824;2024-01-30T21:12:21;8.0;;;6.0;;
45382;SDS011;42455;51.660;5.824;2024-01-30T21:17:27;8.0;;;7.0;;
45382;SDS011;42455;51.660;5.824;2024-01-30T21:22:33;8.0;;;6.5;;
45382;SDS011;42455;51.660;5.824;2024-01-30T21:32:46;9.0;;;6.0;;
45382;SDS011;42455;51.660;5.824;2024-01-30T21:37:52;10.0;;;6.0;;
45382;SDS011;42455;51.660;5.824;2024-01-30T21:42:58;8.0;;;6.0;;
45382;SDS011;42455;51.660;5.824;2024-01-30T21:48:05;11.0;;;6.0;;
45382;SDS011;42455;51.660;5.824;2024-01-30T21:53:11;12.0;;;6.0;;
45382;SDS011;42455;51.660;5.824;2024-01-30T21:58:17;11.0;;;5.0;;
45382;SDS011;42455;51.660;5.824;2024-01-30T22:03:23;11.0;;;6.0;;
45382;SDS011;42455;51.660;5.824;2024-01-30T22:08:29;12.0;;;6.0;;
45382;SDS011;42455;51.660;5.824;2024-01-30T22:13:36;13.0;;;6.0;;
45382;SDS011;42455;51.660;5.824;2024-01-30T22:18:42;11.0;;;6.0;;
45382;SDS011;42455;51.660;5.824;2024-01-30T22:23:48;10.5;;;6.0;;
45382;SDS011;42455;51.660;5.824;2024-01-30T22:28:54;11.0;;;7.0;;
45382;SDS011;42455;51.660;5.824;2024-01-30T22:34:00;12.0;;;7.0;;
45382;SDS011;42455;51.660;5.824;2024-01-30T22:39:07;11.0;;;6.0;;
45382;SDS011;42455;51.660;5.824;2024-01-30T22:44:13;12.0;;;6.0;;
45382;SDS011;42455;51.660;5.824;2024-01-30T22:49:19;10.0;;;6.0;;
45382;SDS011;42455;51.660;5.824;2024-01-30T22:54:25;12.0;;;6.0;;
45382;SDS011;42455;51.660;5.824;2024-01-30T22:59:31;14.0;;;6.0;;
45382;SDS011;42455;51.660;5.824;2024-01-30T23:04:38;13.0;;;7.0;;
45382;SDS011;42455;51.660;5.824;2024-01-30T23:09:44;13.0;;;7.0;;
45382;SDS011;42455;51.660;5.824;2024-01-30T23:14:50;11.5;;;6.0;;
45382;SDS011;42455;51.660;5.824;2024-01-30T23:19:56;8.0;;;4.0;;
45382;SDS011;42455;51.660;5.824;2024-01-30T23:25:02;8.0;;;4.0;;
45382;SDS011;42455;51.660;5.824;2024-01-30T23:30:09;9.0;;;4.0;;
45382;SDS011;42455;51.660;5.824;2024-01-30T23:35:15;6.0;;;3.0;;
45382;SDS011;42455;51.660;5.824;2024-01-30T23:40:21;7.5;;;2.0;;
45382;SDS011;42455;51.660;5.824;2024-01-30T23:45:27;5.0;;;1.0;;
45382;SDS011;42455;51.660;5.824;2024-01-30T23:50:32;6.0;;;1.0;;
45382;SDS011;42455;51.660;5.824;2024-01-30T23:55:39;5.0;;;1.0;;
